Avondale, Washington
Current Conditions -  °F | °C
As of 6:53 PM on Saturday 24 Jan 2015 (Local Time) from KBFI Reporting Station
Overcast Overcast  
Wind Chill: 14°   Ceiling: 1000
Heat Index: 14°   Visibility: 10mi
Dew Point: 12°   Wind: 9mph
Humidity: 84%   Direction: 150°SSE
Pressure: 30.23"   Gusts: NA
Location:  47.6833°N, 122.123°W
Report Text: KBFI 250253Z 15008KT 10SM BKN010 OVC037 14/12 A3023 RMK AO2 SLP238 T01440117 55000
Loading
Personal Weather Stations






























Interactive Weather Map New forecast layout! Learn more

10-Day Weather Forecast

Advertisements
Track Severe Weather on mobile